METAR AND TAF INFORMATION
METAR FOR LPPD
ADDS - METARS form results

(1719 UTC 19 August 2019)
Data provider http://aviationweather.gov/metar/data/
 
METAR text: LPPD 191700Z 07005KT 340V130 9999 FEW008 BKN012 22/19 Q1020
Conditions at: LPPD (PONTA DELGADA/NO, PT) observed 1700 UTC 19 August 2019
Temperature: 22.0°C (72°F)
Dewpoint: 19.0°C (66°F) [RH = 83%]
Pressure (altimeter): 30.12 inches Hg (1020.0 mb)
Winds: from the ENE (70 degrees) at 6 MPH (5 knots; 2.6 m/s)
Visibility: 6 or more miles (10+ km)
Ceiling: 1200 feet AGL
Clouds: few clouds at 800 feet AGL
broken clouds at 1200 feet AGL
Weather: no significant weather observed at this time

METAR text: LPPD 191630Z 04011KT 9999 FEW008 SCT014 23/20 Q1020
Conditions at: LPPD (PONTA DELGADA/NO, PT) observed 1630 UTC 19 August 2019
Temperature: 23.0°C (73°F)
Dewpoint: 20.0°C (68°F) [RH = 83%]
Pressure (altimeter): 30.12 inches Hg (1020.0 mb)
Winds: from the NE (40 degrees) at 13 MPH (11 knots; 5.7 m/s)
Visibility: 6 or more miles (10+ km)
Ceiling: at least 12,000 feet AGL
Clouds: few clouds at 800 feet AGL
scattered clouds at 1400 feet AGL
Weather: no significant weather observed at this time

Forecast for: LPPD (PONTA DELGADA/NO, PT)
Text: TAF LPPD 191700Z 1918/2018 07012KT 9999 SCT015 BKN030
Forecast period: 1800 UTC 19 August 2019 to 1800 UTC 20 August 2019
Forecast type: FROM: standard forecast or significant change
Winds: from the ENE (70 degrees) at 14 MPH (12 knots; 6.2 m/s)
Visibility: 6 or more miles 10+ km)
Ceiling: 3000 feet AGL
Clouds: scattered clouds at 1500 feet AGL
broken clouds at 3000 feet AGL
Weather: no significant weather forecast for this period
Text: TEMPO 1918/2009 SCT006 BKN012
Forecast period: 1800 UTC 19 August 2019 to 0900 UTC 20 August 2019
Forecast type: TEMPORARY: The following changes expected for less than half the time period
Visibility: missing
Ceiling: 1200 feet AGL
Clouds: scattered clouds at 600 feet AGL
broken clouds at 1200 feet AGL
Weather: no significant weather forecast for this period
Text: TEMPO 2009/2015 2000 RADZ BR SCT004 BKN008
Forecast period: 0900 to 1500 UTC 20 August 2019
Forecast type: TEMPORARY: The following changes expected for less than half the time period
Visibility: 1.24 miles (2.00 km)
Ceiling: 800 feet AGL
Clouds: scattered clouds at 400 feet AGL
broken clouds at 800 feet AGL
Weather: RA DZ BR  (moderate rain, moderate drizzle, mist)

 AIRPORT MAP

 RUNWAY INFORMATION
Runway 12 Runway length 8192 ft Runway width 148 ft
Runway elevation 259 ft Runway displaced threshold 0 ft Runway heading 112
Runway 30 Runway length 8192 ft Runway width 148 ft
Runway elevation 187 ft Runway displaced threshold 787 ft Runway heading 292

 AIRPORT FREQUENCIES
Type APP Name APP Frequency 119.4 MHZ
Type TWR Name TWR Frequency 118.3 MHZ

 AIRPORT NEAR NAVIGATION AIDS
Type NDB Name Ponta Delgada Frequency 371 KHZ
Type NDB Name Ponta Delgada Frequency 351 KHZ
Type VORTAC Name Sao Miguel Frequency 114500 KHZ



Powered by Virtual Airlines Manager [v2.6.2]